Acosta, PA (15520)

5:24 AM EST on November 29, 2014 (GMT -0500)
Out in the country | Change Station
CLOSE
Current Station
Personal Weather Station
Location: Somerset, PA
Elevation: 2200 ft
Nearby Weather Stations

Elev 2200 ft 40.07 °N, 79.17 °W | Updated 5 seconds ago

Snow
Snow
24.0 °F
Feels Like 24 °F
N
0.0
Wind Variable Wind from SW
Gusts 1.0 mph

Today
High -- | Low -- °F
--% Chance of Precip.
Yesterday
High -- | Low -- °F
Precip. -- in
7:17 AM 4:51 PM
Waxing Crescent, 50% visible
Pressure 30.11 in
Visibility 1.5 miles
Clouds Overcast 3000 ft
Windchill 24 °F
Dew Point 21 °F
Humidity 89%
Rainfall 0.00 in
Snow Depth Not available.
UV 0 out of 12
Pollen .10 out of 12
Air Quality Not available.
Flu Activity Not available.
SPECI KJST 291012Z AUTO 16006KT 1 1/2SM -SN BR OVC030 M05/M07 A3011 RMK AO2 P0000 T10501072

More Conditions Fewer Conditions

Pressure 30.11 in
Visibility 1.5 miles
Clouds Overcast 3000 ft
Windchill 24 °F
Dew Point 21 °F
Humidity 89%
Rainfall 0.00 in
Snow Depth Not available.
UV 0 out of 12
Pollen .10 out of 12
Air Quality Not available.
Flu Activity Not available.
SPECI KJST 291012Z AUTO 16006KT 1 1/2SM -SN BR OVC030 M05/M07 A3011 RMK AO2 P0000 T10501072

More Conditions Fewer Conditions

10-Day Weather Forecast

Almanac

Astronomy

Nov. 29, 2014 Rise Set
Actual Time
Civil Twilight
Nautical Twilight
Astronomical Twilight
Moon
Length of Visible Light
Length of Day
Tomorrow will be .
, % of the Moon is Illuminated

Today's Extremes

State Highs State Lows

Community

WunderPhotos

Upload Photos

1,774,442 photos uploaded!

WunderBlogs® & News

Nearby

Air Quality

  Air Quality AQ Index Pollutant
Not available.

Snow Depth

Station Depth Elevation

Earthquake Activity

City Distance Mag. Time & Date
Minimum magnitude displayed is 2.5.

Coastal Water Temperatures

Place Temperature

Nearby Weather Stations